Time;durP1;ratioP1;P1;durP2;ratioP2;P2;SDS_P1;SDS_P2;PMS_P1;PMS_P2;Temp;Humidity;BMP_temperature;BMP_pressure;BME280_temperature;BME280_humidity;BME280_pressure;Samples;Min_cycle;Max_cycle;Signal;HPM_P1;HPM_P2
2023/06/02 00:00:52;;;;;;;28.02;19.45;;;14.30;99.90;;;;;;5009988;28;20127;-47
2023/06/02 00:03:18;;;;;;;9.63;8.32;;;14.30;99.90;;;;;;5010697;28;20026;-43
2023/06/02 00:05:44;;;;;;;7.18;6.45;;;14.20;99.90;;;;;;5010289;28;20036;-45
2023/06/02 00:08:11;;;;;;;6.63;5.93;;;14.10;99.90;;;;;;5011332;28;20398;-43
2023/06/02 00:10:36;;;;;;;10.45;6.47;;;14.20;99.90;;;;;;5010807;28;20216;-45
2023/06/02 00:13:02;;;;;;;6.95;6.30;;;14.20;99.90;;;;;;5010327;28;20104;-45
2023/06/02 00:15:31;;;;;;;10.63;7.60;;;14.20;99.90;;;;;;5011546;28;20397;-46
2023/06/02 00:17:57;;;;;;;7.65;6.95;;;14.10;99.90;;;;;;5009399;28;20284;-40
2023/06/02 00:20:26;;;;;;;9.70;6.53;;;14.10;99.90;;;;;;5009915;28;20033;-49
2023/06/02 00:22:54;;;;;;;7.38;6.60;;;14.10;99.90;;;;;;5011278;28;20446;-45
2023/06/02 00:25:20;;;;;;;7.13;6.05;;;14.00;99.90;;;;;;5011756;28;20125;-44
2023/06/02 00:27:45;;;;;;;8.35;6.75;;;14.00;99.90;;;;;;5010248;28;20121;-46
2023/06/02 00:30:11;;;;;;;11.82;6.00;;;14.10;99.90;;;;;;5011132;28;20040;-49
2023/06/02 00:32:37;;;;;;;9.73;6.53;;;14.10;99.90;;;;;;5009844;28;20026;-44
2023/06/02 00:35:03;;;;;;;7.47;6.32;;;14.00;99.90;;;;;;5010223;28;20080;-48
2023/06/02 00:37:28;;;;;;;6.75;6.15;;;14.00;99.90;;;;;;5011561;28;20029;-48
2023/06/02 00:39:54;;;;;;;6.50;6.00;;;14.00;99.90;;;;;;5011130;28;20401;-48
2023/06/02 00:42:20;;;;;;;7.07;6.38;;;13.80;99.90;;;;;;5011467;28;20037;-48
2023/06/02 00:44:46;;;;;;;7.00;6.30;;;13.90;99.90;;;;;;5011228;28;20033;-49
2023/06/02 00:47:11;;;;;;;9.93;6.38;;;13.80;99.90;;;;;;5011271;28;20026;-47
2023/06/02 00:49:37;;;;;;;6.60;6.00;;;13.80;99.90;;;;;;5011475;28;20061;-44
2023/06/02 00:52:03;;;;;;;8.52;6.25;;;13.70;99.90;;;;;;5010701;28;20069;-47
2023/06/02 00:54:29;;;;;;;8.98;6.28;;;13.70;99.90;;;;;;5013449;28;20030;-48
2023/06/02 00:56:55;;;;;;;7.90;6.70;;;13.70;99.90;;;;;;5015388;28;20097;-46
2023/06/02 00:59:23;;;;;;;9.18;5.90;;;13.70;99.90;;;;;;5014251;28;20413;-45
2023/06/02 01:01:50;;;;;;;6.63;5.97;;;13.80;99.90;;;;;;5014482;28;20029;-47
2023/06/02 01:04:18;;;;;;;9.52;6.53;;;13.80;99.90;;;;;;5014759;28;20084;-46
2023/06/02 01:06:44;;;;;;;9.88;6.80;;;13.80;99.90;;;;;;5015450;28;20019;-45
2023/06/02 01:09:12;;;;;;;8.73;6.43;;;13.80;99.90;;;;;;5015105;28;20026;-44
2023/06/02 01:11:37;;;;;;;7.72;5.82;;;13.80;99.90;;;;;;5014726;28;20037;-44
2023/06/02 01:14:03;;;;;;;7.35;6.25;;;13.70;99.90;;;;;;5013247;28;20029;-48
2023/06/02 01:16:32;;;;;;;10.02;6.45;;;13.70;99.90;;;;;;5015104;28;20052;-46
2023/06/02 01:19:01;;;;;;;6.40;5.80;;;13.60;99.90;;;;;;5014931;28;20026;-43
2023/06/02 01:21:34;;;;;;;7.30;6.55;;;13.60;99.90;;;;;;5014495;28;20029;-43
2023/06/02 01:23:59;;;;;;;6.68;6.07;;;13.60;99.90;;;;;;5013732;28;20032;-47
2023/06/02 01:26:29;;;;;;;10.02;6.30;;;13.50;99.90;;;;;;5015268;28;20433;-47
2023/06/02 01:28:54;;;;;;;8.48;6.35;;;13.50;99.90;;;;;;5012443;28;20117;-46
2023/06/02 01:31:27;;;;;;;7.80;5.93;;;13.50;99.90;;;;;;5014142;28;20464;-46
2023/06/02 01:34:19;;;;;;;6.72;6.03;;;13.50;99.90;;;;;;5014193;28;20478;-46
2023/06/02 01:36:47;;;;;;;6.78;6.10;;;13.50;99.90;;;;;;5014563;28;20018;-49
2023/06/02 01:39:13;;;;;;;9.73;6.57;;;13.50;99.90;;;;;;5014549;28;20036;-46
2023/06/02 01:41:44;;;;;;;7.85;6.18;;;13.40;99.90;;;;;;5014259;28;20494;-48
2023/06/02 01:44:11;;;;;;;7.13;5.88;;;13.40;99.90;;;;;;5014075;28;20056;-46
2023/06/02 01:46:39;;;;;;;6.75;5.78;;;13.30;99.90;;;;;;5014308;28;20026;-49
2023/06/02 01:49:14;;;;;;;6.72;6.07;;;13.30;99.90;;;;;;5014292;28;20018;-47
2023/06/02 01:51:40;;;;;;;6.78;5.50;;;13.30;99.90;;;;;;5013805;28;20406;-47
2023/06/02 01:54:05;;;;;;;6.95;5.97;;;13.20;99.90;;;;;;5013955;28;20046;-45
2023/06/02 01:56:30;;;;;;;7.15;5.70;;;13.20;99.90;;;;;;5014223;28;20057;-46
2023/06/02 01:58:57;;;;;;;6.32;5.72;;;13.10;99.90;;;;;;5014170;28;20485;-48
2023/06/02 02:01:23;;;;;;;6.50;5.90;;;13.20;99.90;;;;;;5013497;28;20029;-45
2023/06/02 02:03:50;;;;;;;6.55;5.43;;;13.10;99.90;;;;;;5010994;28;20097;-44
2023/06/02 02:06:16;;;;;;;6.78;6.18;;;13.10;99.90;;;;;;5014131;28;20018;-44
2023/06/02 02:08:41;;;;;;;9.00;6.38;;;13.10;99.90;;;;;;5014432;28;20022;-45
2023/06/02 02:11:07;;;;;;;6.80;5.45;;;13.10;99.90;;;;;;5013790;28;20456;-46
2023/06/02 02:13:32;;;;;;;7.93;6.20;;;13.00;99.90;;;;;;5014066;28;20206;-41
2023/06/02 02:15:58;;;;;;;6.57;5.85;;;13.00;99.90;;;;;;5012435;28;20033;-49
2023/06/02 02:18:24;;;;;;;8.05;5.78;;;13.00;99.90;;;;;;5013763;28;20057;-48
2023/06/02 02:20:50;;;;;;;9.13;5.75;;;13.20;99.90;;;;;;5013381;28;20390;-47
2023/06/02 02:23:15;;;;;;;8.15;5.72;;;13.10;99.90;;;;;;5013407;28;20022;-44
2023/06/02 02:25:41;;;;;;;12.45;6.55;;;13.20;99.90;;;;;;5011272;28;20049;-47
2023/06/02 02:28:06;;;;;;;7.18;5.82;;;13.10;99.90;;;;;;5013963;28;20018;-45
2023/06/02 02:30:32;;;;;;;8.00;5.65;;;13.10;99.90;;;;;;5013068;28;20022;-48
2023/06/02 02:32:57;;;;;;;6.63;6.00;;;13.10;99.90;;;;;;5013415;28;20393;-44
2023/06/02 02:35:23;;;;;;;6.68;6.00;;;13.00;99.90;;;;;;5013939;28;20029;-44
2023/06/02 02:37:48;;;;;;;8.25;6.40;;;12.80;99.90;;;;;;5012307;28;20026;-45
2023/06/02 02:40:15;;;;;;;7.97;5.88;;;12.70;99.90;;;;;;5010932;28;20029;-42
2023/06/02 02:42:41;;;;;;;8.35;6.78;;;12.70;99.90;;;;;;5013069;28;20101;-45
2023/06/02 02:45:08;;;;;;;6.20;5.60;;;12.70;99.90;;;;;;5013355;28;20053;-47
2023/06/02 02:47:33;;;;;;;10.18;7.30;;;12.70;99.90;;;;;;5013362;28;20018;-49
2023/06/02 02:49:59;;;;;;;11.75;6.03;;;12.60;99.90;;;;;;5012908;28;20018;-49
2023/06/02 02:52:24;;;;;;;8.95;6.53;;;12.70;99.90;;;;;;5012924;28;20112;-44
2023/06/02 02:54:50;;;;;;;7.00;6.30;;;12.60;99.90;;;;;;5012847;28;20071;-50
2023/06/02 02:57:16;;;;;;;10.98;6.03;;;12.60;99.90;;;;;;5013024;28;20018;-46
2023/06/02 02:59:41;;;;;;;8.05;6.20;;;12.60;99.90;;;;;;5013015;28;20034;-45
2023/06/02 03:02:08;;;;;;;10.13;6.65;;;12.60;99.90;;;;;;5012392;28;20069;-48
2023/06/02 03:04:34;;;;;;;8.93;5.90;;;12.50;99.90;;;;;;5012873;28;20109;-48
2023/06/02 03:07:01;;;;;;;9.23;6.00;;;12.50;99.90;;;;;;5012979;28;20098;-48
2023/06/02 03:09:27;;;;;;;9.88;6.03;;;12.40;99.90;;;;;;5012854;28;20029;-46
2023/06/02 03:11:52;;;;;;;8.45;6.13;;;12.40;99.90;;;;;;5012221;28;20038;-46
2023/06/02 03:14:18;;;;;;;14.20;6.38;;;12.40;99.90;;;;;;5011334;28;20025;-44
2023/06/02 03:16:44;;;;;;;9.15;6.13;;;12.40;99.90;;;;;;5011878;28;20033;-48
2023/06/02 03:19:13;;;;;;;8.20;6.38;;;12.40;99.90;;;;;;5012602;28;20022;-45
2023/06/02 03:21:43;;;;;;;9.27;5.82;;;12.40;99.90;;;;;;5010724;28;20032;-44
2023/06/02 03:24:09;;;;;;;8.63;6.07;;;12.40;99.90;;;;;;5011058;28;20034;-45
2023/06/02 03:26:35;;;;;;;8.27;6.43;;;12.40;99.90;;;;;;5012348;28;20064;-48
2023/06/02 03:29:01;;;;;;;12.77;6.43;;;12.30;99.90;;;;;;5011191;28;20419;-45
2023/06/02 03:31:28;;;;;;;8.38;6.32;;;12.40;99.90;;;;;;5012008;28;20026;-51
2023/06/02 03:33:53;;;;;;;7.68;6.18;;;12.30;99.90;;;;;;5011989;28;20555;-42
2023/06/02 03:36:19;;;;;;;11.85;7.22;;;12.30;99.90;;;;;;5012226;28;20034;-47
2023/06/02 03:38:45;;;;;;;10.43;7.20;;;12.30;99.90;;;;;;5012278;28;20018;-51
2023/06/02 03:41:11;;;;;;;11.57;7.07;;;12.30;99.90;;;;;;5012134;28;20386;-46
2023/06/02 03:43:36;;;;;;;11.98;6.05;;;12.30;99.90;;;;;;5011690;28;20025;-47
2023/06/02 03:46:02;;;;;;;9.80;6.25;;;12.30;99.90;;;;;;5011822;28;20037;-44
2023/06/02 03:48:27;;;;;;;9.25;6.68;;;12.30;99.90;;;;;;5011167;28;20111;-46
2023/06/02 03:50:53;;;;;;;7.38;5.88;;;12.30;99.90;;;;;;5011510;28;20024;-44
2023/06/02 03:53:18;;;;;;;8.68;6.28;;;12.30;99.90;;;;;;5011474;28;20037;-45
2023/06/02 03:55:44;;;;;;;18.95;6.90;;;12.20;99.90;;;;;;5012009;28;20022;-46
2023/06/02 03:58:12;;;;;;;11.18;6.63;;;12.20;99.90;;;;;;5012157;28;20060;-44
2023/06/02 04:00:38;;;;;;;6.43;5.65;;;12.20;99.90;;;;;;5011633;28;20033;-46
2023/06/02 04:03:03;;;;;;;9.18;6.15;;;12.20;99.90;;;;;;5010174;28;20026;-50
2023/06/02 04:05:29;;;;;;;10.18;6.55;;;12.10;99.90;;;;;;5012717;28;20025;-48
2023/06/02 04:07:56;;;;;;;11.63;6.18;;;12.20;99.90;;;;;;5012122;28;20048;-46
2023/06/02 04:10:21;;;;;;;10.52;5.97;;;12.20;99.90;;;;;;5011400;28;20506;-48
2023/06/02 04:12:47;;;;;;;14.57;6.88;;;12.20;99.90;;;;;;5011362;28;20120;-46
2023/06/02 04:15:12;;;;;;;12.05;6.93;;;12.20;99.90;;;;;;5011986;28;20110;-43
2023/06/02 04:17:38;;;;;;;8.20;6.18;;;12.40;99.90;;;;;;5011749;28;20397;-46
2023/06/02 04:20:04;;;;;;;11.30;6.35;;;12.40;99.90;;;;;;5011508;28;20541;-47
2023/06/02 04:22:29;;;;;;;8.45;5.82;;;12.50;99.90;;;;;;5010002;28;20440;-50
2023/06/02 04:24:55;;;;;;;10.35;6.65;;;12.50;99.90;;;;;;5009777;28;20022;-47
2023/06/02 04:27:20;;;;;;;12.98;6.57;;;12.50;99.90;;;;;;5013591;28;20029;-45
2023/06/02 04:29:46;;;;;;;8.27;6.07;;;12.50;99.90;;;;;;5015963;28;20453;-45
2023/06/02 04:32:11;;;;;;;10.00;6.20;;;12.50;99.90;;;;;;5015326;28;20025;-46
2023/06/02 04:34:37;;;;;;;10.20;7.53;;;12.60;99.90;;;;;;5015539;28;20034;-45
2023/06/02 04:37:03;;;;;;;11.98;7.50;;;12.60;99.90;;;;;;5015728;28;20060;-44
2023/06/02 04:39:28;;;;;;;12.73;7.03;;;12.80;99.90;;;;;;5016018;28;20168;-44
2023/06/02 04:41:56;;;;;;;10.32;6.32;;;13.00;99.90;;;;;;5015079;28;20025;-48
2023/06/02 04:44:22;;;;;;;9.80;6.28;;;13.10;99.90;;;;;;5016310;28;20018;-44
2023/06/02 04:46:48;;;;;;;14.65;6.78;;;13.30;99.90;;;;;;5015594;28;20046;-42
2023/06/02 04:49:13;;;;;;;11.00;6.80;;;13.50;99.90;;;;;;5014895;28;20092;-44
2023/06/02 04:51:39;;;;;;;13.20;6.15;;;13.50;99.90;;;;;;5016678;28;20030;-47
2023/06/02 04:54:05;;;;;;;11.95;6.18;;;13.50;99.90;;;;;;5018966;28;20036;-45
2023/06/02 04:56:32;;;;;;;11.63;5.97;;;13.60;99.90;;;;;;5031695;28;20018;-48
2023/06/02 04:58:57;;;;;;;10.85;5.95;;;13.80;99.90;;;;;;5020807;28;20478;-48
2023/06/02 05:01:23;;;;;;;10.85;5.60;;;13.90;99.90;;;;;;5018032;28;20090;-44
2023/06/02 05:03:48;;;;;;;8.57;6.10;;;14.00;99.90;;;;;;5016374;28;20025;-50
2023/06/02 05:06:14;;;;;;;12.32;6.07;;;13.90;99.90;;;;;;5017113;28;20486;-45
2023/06/02 05:08:39;;;;;;;17.63;6.85;;;13.60;99.90;;;;;;5017821;28;20025;-44
2023/06/02 05:11:05;;;;;;;11.02;5.85;;;13.90;99.90;;;;;;5016939;28;20031;-43
2023/06/02 05:13:31;;;;;;;10.93;5.50;;;14.00;99.90;;;;;;5016731;28;20048;-45
2023/06/02 05:15:57;;;;;;;16.27;6.05;;;14.10;99.90;;;;;;5016234;28;20451;-45
2023/06/02 05:18:23;;;;;;;10.57;5.78;;;14.30;99.90;;;;;;5016059;28;20030;-44
2023/06/02 05:20:50;;;;;;;7.53;5.32;;;14.30;99.90;;;;;;5016420;28;20092;-46
2023/06/02 05:23:16;;;;;;;8.93;5.93;;;14.50;99.90;;;;;;5016914;28;20032;-49
2023/06/02 05:25:42;;;;;;;9.57;5.68;;;14.60;99.90;;;;;;5015741;28;20029;-46
2023/06/02 05:28:07;;;;;;;13.35;5.95;;;14.80;99.90;;;;;;5015836;28;20065;-43
2023/06/02 05:30:34;;;;;;;10.30;5.45;;;14.70;99.90;;;;;;5014929;28;20026;-45
2023/06/02 05:32:59;;;;;;;9.57;5.45;;;14.80;99.90;;;;;;5014040;28;20080;-45
2023/06/02 05:35:25;;;;;;;8.88;5.25;;;15.10;99.90;;;;;;5015599;28;20034;-46
2023/06/02 05:37:50;;;;;;;12.82;5.63;;;15.40;99.90;;;;;;5015405;28;20030;-44
2023/06/02 05:40:16;;;;;;;13.35;5.95;;;15.60;99.90;;;;;;5014064;28;20505;-45
2023/06/02 05:42:41;;;;;;;15.15;6.88;;;15.70;99.90;;;;;;5014749;28;20034;-49
2023/06/02 05:45:07;;;;;;;10.02;5.05;;;16.20;99.00;;;;;;5015173;28;20040;-47
2023/06/02 05:47:33;;;;;;;8.90;5.70;;;16.60;98.30;;;;;;5014407;28;20022;-45
2023/06/02 05:49:59;;;;;;;10.55;5.28;;;16.70;97.10;;;;;;5013915;28;20497;-45
2023/06/02 05:52:24;;;;;;;8.20;5.28;;;16.60;97.40;;;;;;5037986;22;20041;-49
2023/06/02 05:54:50;;;;;;;12.32;5.70;;;16.30;97.00;;;;;;4991452;28;20116;-48
2023/06/02 05:57:17;;;;;;;12.20;5.05;;;15.50;98.40;;;;;;4994420;28;20029;-52
2023/06/02 05:59:43;;;;;;;8.23;5.60;;;15.40;98.70;;;;;;4994415;28;20068;-57
2023/06/02 06:02:09;;;;;;;11.32;4.95;;;15.60;98.70;;;;;;4993723;28;20104;-48
2023/06/02 06:04:34;;;;;;;8.57;5.07;;;15.70;98.70;;;;;;4993713;28;20078;-50
2023/06/02 06:07:00;;;;;;;12.48;5.53;;;16.30;97.60;;;;;;4994354;28;20050;-55
2023/06/02 06:09:25;;;;;;;12.73;5.05;;;16.60;97.00;;;;;;4994157;28;20422;-49
2023/06/02 06:11:51;;;;;;;6.95;4.88;;;17.20;96.30;;;;;;4992825;28;20045;-49
2023/06/02 06:14:16;;;;;;;8.95;5.10;;;17.40;94.80;;;;;;4993857;28;20431;-53
2023/06/02 06:16:42;;;;;;;8.98;5.03;;;17.30;95.30;;;;;;4993936;28;20026;-50
2023/06/02 06:19:07;;;;;;;11.50;6.25;;;17.50;94.70;;;;;;4994315;28;20031;-49
2023/06/02 06:21:33;;;;;;;7.28;5.10;;;17.60;94.60;;;;;;4993490;28;20030;-48
2023/06/02 06:23:58;;;;;;;9.90;5.82;;;18.00;94.30;;;;;;4992511;28;20101;-51
2023/06/02 06:26:24;;;;;;;12.25;5.63;;;18.00;93.60;;;;;;4994158;28;20022;-52
2023/06/02 06:28:49;;;;;;;10.05;5.05;;;17.80;93.80;;;;;;4993923;28;20418;-50
2023/06/02 06:31:15;;;;;;;9.65;4.78;;;17.70;93.90;;;;;;4993307;28;20057;-52
2023/06/02 06:33:40;;;;;;;9.90;4.88;;;17.90;93.60;;;;;;4993241;28;20050;-51
2023/06/02 06:36:06;;;;;;;9.40;4.88;;;18.00;92.90;;;;;;4992423;28;20475;-53
2023/06/02 06:38:32;;;;;;;8.60;4.65;;;18.20;93.00;;;;;;4993683;28;20032;-51
2023/06/02 06:40:57;;;;;;;13.70;5.18;;;17.90;92.80;;;;;;4993334;28;20069;-50
2023/06/02 06:43:23;;;;;;;8.93;5.00;;;17.10;94.00;;;;;;4993256;28;20031;-49
2023/06/02 06:45:48;;;;;;;8.40;4.88;;;17.80;93.60;;;;;;4992683;28;20431;-48
2023/06/02 06:48:14;;;;;;;14.80;4.93;;;18.20;92.60;;;;;;4993793;28;20030;-48
2023/06/02 06:50:40;;;;;;;8.48;4.72;;;17.60;92.60;;;;;;4992183;28;20030;-49
2023/06/02 06:53:05;;;;;;;7.15;5.20;;;18.30;92.60;;;;;;4993045;28;20038;-48
2023/06/02 06:55:31;;;;;;;9.93;5.28;;;19.30;91.60;;;;;;4993418;28;20293;-48
2023/06/02 06:57:56;;;;;;;13.30;4.95;;;19.90;90.00;;;;;;4993914;28;20037;-48
2023/06/02 07:00:22;;;;;;;8.95;4.82;;;20.50;88.70;;;;;;4993023;28;20035;-49
2023/06/02 07:02:48;;;;;;;11.15;4.70;;;20.10;89.10;;;;;;4992938;28;20046;-55
2023/06/02 07:05:15;;;;;;;6.53;3.60;;;20.00;88.90;;;;;;4993346;28;20026;-53
2023/06/02 07:07:40;;;;;;;9.85;4.53;;;19.80;89.70;;;;;;4993241;28;20037;-52
2023/06/02 07:10:06;;;;;;;8.07;3.95;;;19.80;88.00;;;;;;4992725;28;20106;-48
2023/06/02 07:12:32;;;;;;;7.50;3.92;;;19.10;89.40;;;;;;4992720;28;20097;-51
2023/06/02 07:14:57;;;;;;;9.75;4.72;;;18.80;90.10;;;;;;4993082;28;20049;-49
2023/06/02 07:17:23;;;;;;;8.77;4.43;;;19.10;90.30;;;;;;4993077;28;20050;-49
2023/06/02 07:19:48;;;;;;;9.00;4.63;;;18.60;90.20;;;;;;4993010;28;20027;-53
2023/06/02 07:22:14;;;;;;;13.45;4.35;;;18.30;90.70;;;;;;4991422;28;20022;-49
2023/06/02 07:24:41;;;;;;;8.77;4.40;;;18.10;91.20;;;;;;4990151;28;20029;-51
2023/06/02 07:27:07;;;;;;;6.00;4.40;;;18.50;90.70;;;;;;4992838;28;20084;-55
2023/06/02 07:29:32;;;;;;;8.15;4.22;;;18.30;90.50;;;;;;4992933;28;20453;-49
2023/06/02 07:31:58;;;;;;;10.90;4.50;;;18.70;90.60;;;;;;4992201;28;20027;-49
2023/06/02 07:34:23;;;;;;;10.27;3.78;;;18.80;89.50;;;;;;4992345;28;20161;-51
2023/06/02 07:36:49;;;;;;;9.32;4.28;;;19.40;89.10;;;;;;4992635;28;20030;-49
2023/06/02 07:39:15;;;;;;;6.80;3.67;;;19.80;88.20;;;;;;4992652;28;20130;-48
2023/06/02 07:41:41;;;;;;;11.45;4.07;;;21.10;86.30;;;;;;4992268;28;20638;-49
2023/06/02 07:44:06;;;;;;;8.55;3.88;;;21.20;83.80;;;;;;4992332;28;20081;-53
2023/06/02 07:46:32;;;;;;;11.27;4.63;;;20.20;85.30;;;;;;4992418;28;20022;-50
2023/06/02 07:48:58;;;;;;;11.52;4.15;;;20.00;86.90;;;;;;4991249;28;20050;-56
2023/06/02 07:51:24;;;;;;;7.88;4.30;;;19.70;87.60;;;;;;4991825;28;20019;-48
2023/06/02 07:53:49;;;;;;;6.43;3.58;;;20.80;86.10;;;;;;4991707;28;20045;-49
2023/06/02 07:56:15;;;;;;;6.18;4.10;;;21.60;83.40;;;;;;4990761;28;20029;-48
2023/06/02 07:58:40;;;;;;;6.93;3.83;;;21.70;82.20;;;;;;4992108;28;20030;-56
2023/06/02 08:01:06;;;;;;;13.35;4.88;;;21.80;81.40;;;;;;4990378;28;20470;-50
2023/06/02 08:03:31;;;;;;;7.55;4.18;;;20.60;83.60;;;;;;4990679;28;20031;-53
2023/06/02 08:05:57;;;;;;;6.97;4.15;;;19.70;84.50;;;;;;4991600;28;20437;-52
2023/06/02 08:08:23;;;;;;;15.23;4.80;;;19.50;87.10;;;;;;4990435;28;20051;-51
2023/06/02 08:10:48;;;;;;;8.02;4.50;;;19.40;87.20;;;;;;4991833;28;20018;-56
2023/06/02 08:13:15;;;;;;;9.82;4.75;;;19.20;86.50;;;;;;4991371;28;20041;-55
2023/06/02 08:15:40;;;;;;;7.03;4.13;;;19.20;86.50;;;;;;4992287;28;20109;-52
2023/06/02 08:18:12;;;;;;;7.90;4.22;;;19.10;87.20;;;;;;4988095;28;20601;-47
2023/06/02 08:20:38;;;;;;;10.13;3.70;;;19.60;87.40;;;;;;4990507;28;20041;-46
2023/06/02 08:23:03;;;;;;;5.68;3.72;;;19.50;88.30;;;;;;4991029;28;20030;-51
2023/06/02 08:25:29;;;;;;;10.60;5.88;;;20.10;87.00;;;;;;4991363;28;20542;-50
2023/06/02 08:27:56;;;;;;;5.32;4.50;;;19.60;86.50;;;;;;4990192;28;20398;-48
2023/06/02 08:30:21;;;;;;;8.70;4.20;;;19.00;88.10;;;;;;4990318;28;20022;-51
2023/06/02 08:32:48;;;;;;;9.93;5.18;;;18.40;90.10;;;;;;4990689;28;20034;-54
2023/06/02 08:35:13;;;;;;;8.45;5.00;;;18.10;90.80;;;;;;4991268;28;20030;-52
2023/06/02 08:37:40;;;;;;;10.38;4.80;;;17.70;90.70;;;;;;4991663;28;20109;-50
2023/06/02 08:40:07;;;;;;;9.20;4.38;;;17.70;91.10;;;;;;4991286;28;20602;-51
2023/06/02 08:42:33;;;;;;;7.63;4.88;;;18.00;90.90;;;;;;4991314;28;20027;-52
2023/06/02 08:44:59;;;;;;;13.57;4.90;;;18.10;90.80;;;;;;4990770;28;20026;-52
2023/06/02 08:47:28;;;;;;;8.30;5.10;;;18.20;90.50;;;;;;4971690;28;20029;-46
2023/06/02 08:49:54;;;;;;;9.50;5.53;;;17.70;91.00;;;;;;4989675;28;20018;-48
2023/06/02 08:52:27;;;;;;;7.53;4.97;;;17.80;90.70;;;;;;4990283;28;20410;-51
2023/06/02 08:54:53;;;;;;;7.07;4.22;;;17.80;91.30;;;;;;5004959;28;20053;-60
2023/06/02 08:57:22;;;;;;;6.55;4.25;;;18.20;91.20;;;;;;5001257;28;20077;-63
2023/06/02 08:59:49;;;;;;;11.98;4.75;;;18.00;90.70;;;;;;4978397;28;20500;-59
2023/06/02 09:02:16;;;;;;;10.25;4.50;;;18.50;90.60;;;;;;4986670;28;20483;-58
2023/06/02 09:04:42;;;;;;;10.30;4.78;;;18.40;88.50;;;;;;4989847;28;20034;-55
2023/06/02 09:07:15;;;;;;;5.63;4.72;;;18.10;90.10;;;;;;5001418;28;20018;-59
2023/06/02 09:09:45;;;;;;;8.23;4.18;;;17.90;89.50;;;;;;5008683;28;20034;-61
2023/06/02 09:12:11;;;;;;;7.22;4.13;;;17.90;90.50;;;;;;4997637;28;20506;-56
2023/06/02 09:14:39;;;;;;;9.50;4.35;;;17.70;89.90;;;;;;4991265;28;20027;-56
2023/06/02 09:17:24;;;;;;;12.70;4.38;;;17.90;90.00;;;;;;4993900;28;20487;-53
2023/06/02 09:19:52;;;;;;;8.38;4.38;;;18.00;90.40;;;;;;4999047;28;20053;-58
2023/06/02 09:22:18;;;;;;;11.68;4.93;;;17.70;90.10;;;;;;4992022;28;20069;-55
2023/06/02 09:24:43;;;;;;;9.48;5.10;;;17.20;91.00;;;;;;4992759;28;20391;-58
2023/06/02 09:27:13;;;;;;;10.57;5.32;;;17.50;91.50;;;;;;4993769;28;20027;-58
2023/06/02 09:29:39;;;;;;;9.00;4.53;;;17.80;90.70;;;;;;4992864;28;20487;-47
2023/06/02 09:32:12;;;;;;;12.25;5.10;;;18.10;90.80;;;;;;4993029;28;20034;-44
2023/06/02 09:34:38;;;;;;;17.02;5.50;;;18.30;90.50;;;;;;4993148;28;20107;-48
2023/06/02 09:37:12;;;;;;;5.80;3.97;;;18.30;90.00;;;;;;4992631;28;20471;-48
2023/06/02 09:39:43;;;;;;;8.80;4.20;;;18.30;89.50;;;;;;4993437;28;20034;-57
2023/06/02 09:42:12;;;;;;;7.07;4.90;;;18.20;89.60;;;;;;4992255;28;20026;-57
2023/06/02 09:44:38;;;;;;;15.60;4.82;;;18.20;89.60;;;;;;4992504;28;20021;-55
2023/06/02 09:47:22;;;;;;;15.77;6.15;;;18.10;90.50;;;;;;4994179;28;20045;-57
2023/06/02 09:49:48;;;;;;;37.13;22.67;;;18.00;90.60;;;;;;4993231;28;20216;-63
2023/06/02 09:52:15;;;;;;;7.88;5.10;;;17.90;90.20;;;;;;4991844;28;20457;-53
2023/06/02 09:54:45;;;;;;;6.55;4.30;;;18.10;90.50;;;;;;4992436;28;20544;-45
2023/06/02 09:57:12;;;;;;;13.10;5.03;;;18.00;90.40;;;;;;4986517;28;20053;-58
2023/06/02 09:59:38;;;;;;;6.55;4.57;;;17.80;90.50;;;;;;4992720;28;20038;-57
2023/06/02 10:02:05;;;;;;;11.75;5.18;;;17.90;90.90;;;;;;4991739;28;20042;-56
2023/06/02 10:04:30;;;;;;;5.82;4.90;;;18.00;90.40;;;;;;4992485;28;20030;-49
2023/06/02 10:07:37;;;;;;;8.95;4.80;;;18.20;90.70;;;;;;4991925;28;20053;-61
2023/06/02 10:10:22;;;;;;;6.88;4.50;;;18.00;90.30;;;;;;4979682;28;20023;-53
2023/06/02 10:13:09;;;;;;;10.50;4.35;;;17.90;90.50;;;;;;4987344;28;20032;-54
2023/06/02 10:15:59;;;;;;;9.45;4.60;;;17.90;90.70;;;;;;4981813;28;20145;-50
2023/06/02 10:18:34;;;;;;;7.32;4.65;;;18.10;90.40;;;;;;4986232;28;20023;-50
2023/06/02 10:21:11;;;;;;;9.13;4.78;;;17.90;90.10;;;;;;4992849;28;20565;-51
2023/06/02 10:23:47;;;;;;;7.22;4.82;;;17.70;90.80;;;;;;4993201;28;20038;-48
2023/06/02 10:26:33;;;;;;;10.80;4.63;;;17.60;91.20;;;;;;4993860;28;20022;-51
2023/06/02 10:29:04;;;;;;;17.88;3.85;;;17.80;90.60;;;;;;4993629;28;20034;-51
2023/06/02 10:31:34;;;;;;;6.10;3.58;;;17.90;90.40;;;;;;4992931;28;20141;-51
2023/06/02 10:34:01;;;;;;;10.80;4.40;;;18.10;90.30;;;;;;4993020;28;20165;-48
2023/06/02 10:36:27;;;;;;;8.63;4.07;;;18.00;89.50;;;;;;4993773;28;20026;-56
2023/06/02 10:38:53;;;;;;;10.75;3.55;;;18.10;90.50;;;;;;4993551;28;20379;-53
2023/06/02 10:41:21;;;;;;;10.30;4.90;;;18.30;90.70;;;;;;4991190;28;20034;-53
2023/06/02 10:44:21;;;;;;;14.75;9.13;;;18.30;90.40;;;;;;4993071;28;20022;-54
2023/06/02 10:46:46;;;;;;;42.97;23.05;;;18.30;87.70;;;;;;4983691;28;20149;-54
2023/06/02 10:49:53;;;;;;;15.18;4.85;;;18.40;89.50;;;;;;4990637;28;20097;-55
2023/06/02 10:52:20;;;;;;;8.10;4.55;;;18.30;88.20;;;;;;4992898;28;20045;-54
2023/06/02 10:55:05;;;;;;;9.88;4.05;;;18.20;90.60;;;;;;4992882;28;20041;-51
2023/06/02 10:58:05;;;;;;;9.63;4.18;;;18.10;90.20;;;;;;4993261;28;20022;-51
2023/06/02 11:00:39;;;;;;;8.30;4.20;;;18.20;87.60;;;;;;4991910;28;20375;-48
2023/06/02 11:03:13;;;;;;;7.72;3.72;;;18.10;87.90;;;;;;4992099;28;20034;-50
2023/06/02 11:05:39;;;;;;;6.03;3.65;;;18.10;89.00;;;;;;4992961;28;20402;-53
2023/06/02 11:08:14;;;;;;;7.05;3.38;;;18.10;86.80;;;;;;4987060;28;20034;-53
2023/06/02 11:10:45;;;;;;;;;;;18.10;86.70;;;;;;4992525;28;20029;-53
2023/06/02 11:13:14;;;;;;;4.70;3.00;;;18.10;85.10;;;;;;4992157;28;19937;-55
2023/06/02 11:15:58;;;;;;;7.22;2.63;;;18.20;87.20;;;;;;4992621;28;20070;-54
2023/06/02 11:18:31;;;;;;;5.22;3.53;;;18.20;86.00;;;;;;4985072;28;20030;-56
2023/06/02 11:21:14;;;;;;;10.40;3.53;;;18.20;85.90;;;;;;4992014;28;20023;-55
2023/06/02 11:23:41;;;;;;;10.25;3.90;;;18.20;86.80;;;;;;4990055;28;20113;-53
2023/06/02 11:26:10;;;;;;;9.13;3.45;;;18.10;87.60;;;;;;4990361;28;20034;-53
2023/06/02 11:28:35;;;;;;;7.55;3.33;;;18.10;88.60;;;;;;4992097;28;20113;-49
2023/06/02 11:31:08;;;;;;;11.70;3.55;;;18.20;87.20;;;;;;4991860;28;20549;-49
2023/06/02 11:33:37;;;;;;;7.35;3.28;;;18.20;86.60;;;;;;4991109;28;20026;-53
2023/06/02 11:36:06;;;;;;;10.35;4.15;;;18.30;88.20;;;;;;4991573;28;20030;-57
2023/06/02 11:38:32;;;;;;;10.77;3.60;;;18.30;88.10;;;;;;4991918;28;20031;-54
2023/06/02 11:41:18;;;;;;;6.22;3.25;;;18.30;85.40;;;;;;4991591;28;20391;-50
2023/06/02 11:43:48;;;;;;;8.05;3.70;;;18.30;86.30;;;;;;4991550;28;20023;-52
2023/06/02 11:46:19;;;;;;;19.98;11.68;;;18.40;86.70;;;;;;4991165;28;20041;-52
2023/06/02 11:48:46;;;;;;;39.85;24.08;;;18.50;85.90;;;;;;4988618;28;20022;-53
2023/06/02 11:51:13;;;;;;;7.95;3.35;;;18.50;85.60;;;;;;4992026;28;20061;-52
2023/06/02 11:53:44;;;;;;;5.43;3.10;;;18.60;84.80;;;;;;4991443;28;20760;-55
2023/06/02 11:56:10;;;;;;;6.22;2.90;;;18.60;85.60;;;;;;4991107;28;20066;-52
2023/06/02 11:58:46;;;;;;;4.70;3.28;;;18.60;84.50;;;;;;4984537;28;20026;-51
2023/06/02 12:01:17;;;;;;;4.43;2.70;;;18.50;84.20;;;;;;4991453;28;20038;-56
2023/06/02 12:04:04;;;;;;;4.22;2.75;;;18.60;82.70;;;;;;4972491;28;20431;-48
2023/06/02 12:06:40;;;;;;;8.50;2.70;;;18.60;82.30;;;;;;4986587;28;20125;-57
2023/06/02 12:09:11;;;;;;;10.10;3.17;;;18.60;80.80;;;;;;4991585;28;20027;-54
2023/06/02 12:11:37;;;;;;;5.88;2.80;;;18.30;83.30;;;;;;4991200;28;20150;-54
2023/06/02 12:14:04;;;;;;;8.77;3.40;;;18.40;84.90;;;;;;4988615;28;20477;-55
2023/06/02 12:16:31;;;;;;;10.55;3.13;;;18.60;85.40;;;;;;4991100;28;20113;-47
2023/06/02 12:19:21;;;;;;;11.35;3.10;;;18.60;84.70;;;;;;4992150;28;20414;-51
2023/06/02 12:21:49;;;;;;;7.95;3.38;;;18.70;83.00;;;;;;4990134;28;20030;-54
2023/06/02 12:24:34;;;;;;;10.95;3.88;;;18.40;81.80;;;;;;4991040;28;20130;-55
2023/06/02 12:27:00;;;;;;;6.78;3.65;;;18.40;82.20;;;;;;4991383;28;20041;-50
2023/06/02 12:29:27;;;;;;;4.20;2.58;;;18.50;83.90;;;;;;4992148;28;20023;-48
2023/06/02 12:32:00;;;;;;;7.07;2.50;;;18.60;82.90;;;;;;4987208;28;20026;-53
2023/06/02 12:34:26;;;;;;;9.77;2.47;;;18.80;83.10;;;;;;4990500;28;20014;-48
2023/06/02 12:36:52;;;;;;;5.68;2.92;;;18.80;83.90;;;;;;4992058;28;20544;-54
2023/06/02 12:39:18;;;;;;;6.53;2.88;;;18.90;83.10;;;;;;4991576;28;20026;-49
2023/06/02 12:41:43;;;;;;;17.73;2.88;;;18.80;85.20;;;;;;4991245;28;20033;-51
2023/06/02 12:44:09;;;;;;;7.75;2.25;;;18.80;83.00;;;;;;4990817;28;20022;-50
2023/06/02 12:46:34;;;;;;;6.10;2.58;;;18.60;84.10;;;;;;4991159;28;20026;-52